createdAt,value
2023-05-13T00:01:59.911Z,11.57
2023-05-13T00:04:27.165Z,11.55
2023-05-13T00:06:54.380Z,11.53
2023-05-13T00:09:21.489Z,11.48
2023-05-13T00:11:48.604Z,11.48
2023-05-13T00:14:15.666Z,11.42
2023-05-13T00:16:43.304Z,11.43
2023-05-13T00:19:10.596Z,11.44
2023-05-13T00:21:38.030Z,11.48
2023-05-13T00:24:05.774Z,11.44
2023-05-13T00:26:32.957Z,11.41
2023-05-13T00:29:00.295Z,11.38
2023-05-13T00:31:27.552Z,11.40
2023-05-13T00:33:54.664Z,11.43
2023-05-13T00:36:21.784Z,11.40
2023-05-13T00:38:48.953Z,11.37
2023-05-13T00:41:16.577Z,11.37
2023-05-13T00:43:43.714Z,11.35
2023-05-13T00:46:10.857Z,11.33
2023-05-13T00:48:38.559Z,11.31
2023-05-13T00:51:05.712Z,11.29
2023-05-13T00:53:33.412Z,11.25
2023-05-13T00:56:00.658Z,11.20
2023-05-13T00:58:27.861Z,11.20
2023-05-13T01:01:04.258Z,11.17
2023-05-13T01:04:09.031Z,11.09
2023-05-13T01:07:07.332Z,10.97
2023-05-13T01:10:16.089Z,10.93
2023-05-13T01:12:45.302Z,10.95
2023-05-13T01:15:21.679Z,10.91
2023-05-13T01:18:06.296Z,10.85
2023-05-13T01:20:34.384Z,10.80
2023-05-13T01:23:01.584Z,10.77
2023-05-13T01:25:28.713Z,10.76
2023-05-13T01:27:55.881Z,10.75
2023-05-13T01:30:23.873Z,10.76
2023-05-13T01:32:51.928Z,10.76
2023-05-13T01:35:19.720Z,10.76
2023-05-13T01:37:47.521Z,10.71
2023-05-13T01:40:30.563Z,10.64
2023-05-13T01:42:58.642Z,10.62
2023-05-13T01:45:28.306Z,10.59
2023-05-13T01:47:56.156Z,10.57
2023-05-13T01:50:23.920Z,10.52
2023-05-13T01:52:51.365Z,10.45
2023-05-13T01:55:18.915Z,10.37
2023-05-13T01:57:46.087Z,10.30
2023-05-13T02:00:13.610Z,10.27
2023-05-13T02:02:40.843Z,10.25
2023-05-13T02:05:08.681Z,10.21
2023-05-13T02:07:35.999Z,10.17
2023-05-13T02:10:03.206Z,10.11
2023-05-13T02:12:30.619Z,10.07
2023-05-13T02:14:57.808Z,10.05
2023-05-13T02:17:25.058Z,10.06
2023-05-13T02:19:52.543Z,10.04
2023-05-13T02:22:19.691Z,9.99
2023-05-13T02:24:46.735Z,9.96
2023-05-13T02:27:16.363Z,9.94
2023-05-13T02:29:43.453Z,9.90
2023-05-13T02:32:10.574Z,9.86
2023-05-13T02:34:37.808Z,9.81
2023-05-13T02:37:06.500Z,9.72
2023-05-13T02:39:33.589Z,9.67
2023-05-13T02:42:00.797Z,9.60
2023-05-13T02:44:27.868Z,9.57
2023-05-13T02:46:54.993Z,9.50
2023-05-13T02:49:22.197Z,9.42
2023-05-13T02:51:49.357Z,9.41
2023-05-13T02:54:16.494Z,9.36
2023-05-13T02:56:43.607Z,9.33
2023-05-13T02:59:11.228Z,9.30
2023-05-13T03:01:38.400Z,9.27
2023-05-13T03:04:05.547Z,9.17
2023-05-13T03:06:32.770Z,9.15
2023-05-13T03:08:59.817Z,9.08
2023-05-13T03:11:27.228Z,9.10
2023-05-13T03:13:54.285Z,9.13
2023-05-13T03:16:21.404Z,9.09
2023-05-13T03:18:48.806Z,9.08
2023-05-13T03:21:16.060Z,9.06
2023-05-13T03:23:43.119Z,9.01
2023-05-13T03:26:10.205Z,8.95
2023-05-13T03:28:37.428Z,8.94
2023-05-13T03:31:04.663Z,8.85
2023-05-13T03:33:31.921Z,8.80
2023-05-13T03:35:58.946Z,8.75
2023-05-13T03:38:26.008Z,8.69
2023-05-13T03:40:53.053Z,8.73
2023-05-13T03:43:20.237Z,8.72
2023-05-13T03:45:48.564Z,8.73
2023-05-13T03:48:15.673Z,8.73
2023-05-13T03:50:42.863Z,8.72
2023-05-13T03:53:13.064Z,8.70
2023-05-13T03:55:40.297Z,8.69
2023-05-13T03:58:14.772Z,8.65
2023-05-13T04:00:42.420Z,8.60
2023-05-13T04:03:09.627Z,8.55
2023-05-13T04:05:36.692Z,8.58
2023-05-13T04:08:03.847Z,8.57
2023-05-13T04:10:31.041Z,8.57
2023-05-13T04:12:58.276Z,8.61
2023-05-13T04:15:25.360Z,8.58
2023-05-13T04:17:52.599Z,8.63
2023-05-13T04:20:20.238Z,8.66
2023-05-13T04:22:48.114Z,8.67
2023-05-13T04:25:15.701Z,8.67
2023-05-13T04:27:43.076Z,8.73
2023-05-13T04:30:10.895Z,8.77
2023-05-13T04:32:38.602Z,8.81
2023-05-13T04:35:09.426Z,8.88
2023-05-13T04:37:36.675Z,8.93
2023-05-13T04:40:04.135Z,8.99
2023-05-13T04:42:31.298Z,9.04
2023-05-13T04:44:58.370Z,9.10
2023-05-13T04:47:25.412Z,9.17
2023-05-13T04:49:52.530Z,9.25
2023-05-13T04:52:20.063Z,9.34
2023-05-13T04:54:47.129Z,9.43
2023-05-13T04:57:14.694Z,9.52
2023-05-13T04:59:41.789Z,9.65
2023-05-13T05:02:08.843Z,9.75
2023-05-13T05:04:35.986Z,9.90
2023-05-13T05:07:03.036Z,10.06
2023-05-13T05:09:30.314Z,10.18
2023-05-13T05:11:57.390Z,10.37
2023-05-13T05:14:24.522Z,10.55
2023-05-13T05:16:51.673Z,10.71
2023-05-13T05:19:24.004Z,10.86
2023-05-13T05:21:51.899Z,11.00
2023-05-13T05:24:19.459Z,11.19
2023-05-13T05:26:46.655Z,11.37
2023-05-13T05:29:13.701Z,11.47
2023-05-13T05:31:41.064Z,11.70
2023-05-13T05:34:08.209Z,11.80
2023-05-13T05:36:38.111Z,11.90
2023-05-13T05:39:05.900Z,12.09
2023-05-13T05:41:33.182Z,12.28
2023-05-13T05:44:00.282Z,12.46
2023-05-13T05:46:27.776Z,12.46
2023-05-13T05:48:54.986Z,12.49
2023-05-13T05:51:22.078Z,12.46
2023-05-13T05:53:49.134Z,12.55
2023-05-13T05:56:16.237Z,12.56
2023-05-13T05:58:43.308Z,12.69
2023-05-13T06:01:10.453Z,12.81
2023-05-13T06:03:37.618Z,12.93
2023-05-13T06:06:05.150Z,12.96
2023-05-13T06:08:32.418Z,13.04
2023-05-13T06:10:59.523Z,13.11
2023-05-13T06:13:26.699Z,13.20
2023-05-13T06:15:53.781Z,13.12
2023-05-13T06:18:21.072Z,13.15
2023-05-13T06:20:48.116Z,13.23
2023-05-13T06:23:15.201Z,13.31
2023-05-13T06:25:42.363Z,13.52
2023-05-13T06:28:10.916Z,13.64
2023-05-13T06:30:38.612Z,13.79
2023-05-13T06:33:06.282Z,13.79
2023-05-13T06:35:33.355Z,13.86
2023-05-13T06:38:00.447Z,13.95
2023-05-13T06:40:27.578Z,14.06
2023-05-13T06:42:54.662Z,14.19
2023-05-13T06:45:23.449Z,14.39
2023-05-13T06:47:51.395Z,14.51
2023-05-13T06:50:18.853Z,14.63
2023-05-13T06:52:45.995Z,14.74
2023-05-13T06:55:13.301Z,14.78
2023-05-13T06:57:43.443Z,14.93
2023-05-13T07:00:11.244Z,15.04
2023-05-13T07:02:38.457Z,15.16
2023-05-13T07:05:05.968Z,15.32
2023-05-13T07:07:33.032Z,15.39
2023-05-13T07:10:00.290Z,15.41
2023-05-13T07:12:27.398Z,15.36
2023-05-13T07:14:54.473Z,15.46
2023-05-13T07:17:21.624Z,15.53
2023-05-13T07:19:48.840Z,15.58
2023-05-13T07:22:15.929Z,15.65
2023-05-13T07:24:43.077Z,15.81
2023-05-13T07:27:10.179Z,15.97
2023-05-13T07:29:37.250Z,16.20
2023-05-13T07:32:05.708Z,16.40
2023-05-13T07:34:32.753Z,16.51
2023-05-13T07:36:59.915Z,16.59
2023-05-13T07:39:27.777Z,16.67
2023-05-13T07:41:55.025Z,16.91
2023-05-13T07:44:22.354Z,16.87
2023-05-13T07:46:51.541Z,16.91
2023-05-13T07:49:18.976Z,16.89
2023-05-13T07:51:46.389Z,17.18
2023-05-13T07:54:13.422Z,17.17
2023-05-13T07:56:40.572Z,17.14
2023-05-13T07:59:07.650Z,16.91
2023-05-13T08:01:34.716Z,16.99
2023-05-13T08:04:02.137Z,17.11
2023-05-13T08:06:30.035Z,16.57
2023-05-13T08:08:57.206Z,16.69
2023-05-13T08:11:24.428Z,16.70
2023-05-13T08:13:51.774Z,16.70
2023-05-13T08:16:18.843Z,16.92
2023-05-13T08:18:46.049Z,17.13
2023-05-13T08:21:13.195Z,17.17
2023-05-13T08:23:44.960Z,17.59
2023-05-13T08:26:13.391Z,17.70
2023-05-13T08:28:42.269Z,17.54
2023-05-13T08:31:13.142Z,17.27
2023-05-13T08:33:41.864Z,17.22
2023-05-13T08:36:09.597Z,17.22
2023-05-13T08:38:36.713Z,17.41
2023-05-13T08:41:05.365Z,17.58
2023-05-13T08:43:32.980Z,17.49
2023-05-13T08:46:03.941Z,17.50
2023-05-13T08:48:32.045Z,17.67
2023-05-13T08:50:59.270Z,17.91
2023-05-13T08:53:26.822Z,17.67
2023-05-13T08:55:54.533Z,17.45
2023-05-13T08:58:21.767Z,17.54
2023-05-13T09:00:49.726Z,17.53
2023-05-13T09:03:16.973Z,17.54
2023-05-13T09:05:44.036Z,17.79
2023-05-13T09:08:11.292Z,18.24
2023-05-13T09:10:41.281Z,18.77
2023-05-13T09:13:08.383Z,19.16
2023-05-13T09:15:35.488Z,19.07
2023-05-13T09:18:06.003Z,19.06
2023-05-13T09:20:34.643Z,19.12
2023-05-13T09:23:06.929Z,18.65
2023-05-13T09:25:34.332Z,18.47
2023-05-13T09:28:02.775Z,18.44
2023-05-13T09:30:32.823Z,18.46
2023-05-13T09:33:12.113Z,18.43
2023-05-13T09:35:40.219Z,18.22
2023-05-13T09:38:26.297Z,18.11
2023-05-13T09:40:58.384Z,17.84
2023-05-13T09:43:28.092Z,17.76
2023-05-13T09:45:56.267Z,17.61
2023-05-13T09:48:28.212Z,17.60
2023-05-13T09:50:57.889Z,17.38
2023-05-13T09:53:26.066Z,17.23
2023-05-13T09:55:55.589Z,16.90
2023-05-13T09:58:24.693Z,16.75
2023-05-13T10:00:52.482Z,16.78
2023-05-13T10:03:20.028Z,16.83
2023-05-13T10:05:48.730Z,16.80
2023-05-13T10:08:17.603Z,16.78
2023-05-13T10:10:46.037Z,16.87
2023-05-13T10:13:18.841Z,16.83
2023-05-13T10:15:50.715Z,16.79
2023-05-13T10:18:19.208Z,16.75
2023-05-13T10:20:47.100Z,16.81
2023-05-13T10:23:14.167Z,16.80
2023-05-13T10:25:42.001Z,16.77
2023-05-13T10:28:10.533Z,16.73
2023-05-13T10:30:38.404Z,16.84
2023-05-13T10:33:05.528Z,16.90
2023-05-13T10:35:37.493Z,16.83
2023-05-13T10:38:36.647Z,16.73
2023-05-13T10:41:12.247Z,16.71
2023-05-13T10:43:39.427Z,16.55
2023-05-13T10:46:12.544Z,16.52
2023-05-13T10:48:40.628Z,16.54
2023-05-13T10:51:10.362Z,16.58
2023-05-13T10:53:47.416Z,16.52
2023-05-13T10:56:15.086Z,16.44
2023-05-13T10:58:42.171Z,16.39
2023-05-13T11:01:31.996Z,16.35
2023-05-13T11:04:01.137Z,16.38
2023-05-13T11:06:35.765Z,16.32
2023-05-13T11:09:06.040Z,16.13
2023-05-13T11:11:35.985Z,16.02
2023-05-13T11:14:09.693Z,15.97
2023-05-13T11:16:37.723Z,15.93
2023-05-13T11:19:09.696Z,15.89
2023-05-13T11:21:41.374Z,15.80
2023-05-13T11:24:09.715Z,15.68
2023-05-13T11:26:52.716Z,15.72
2023-05-13T11:29:33.515Z,15.72
2023-05-13T11:32:01.945Z,15.79
2023-05-13T11:34:29.804Z,15.77
2023-05-13T11:37:10.880Z,15.94
2023-05-13T11:39:41.704Z,16.00
2023-05-13T11:42:10.296Z,15.92
2023-05-13T11:44:45.721Z,15.93
2023-05-13T11:47:12.928Z,16.02
2023-05-13T11:49:45.025Z,15.97
2023-05-13T11:52:17.595Z,15.98
2023-05-13T11:54:53.435Z,16.00
2023-05-13T11:57:24.544Z,16.04
2023-05-13T11:59:53.893Z,16.04
2023-05-13T12:02:22.985Z,16.20
2023-05-13T12:04:50.891Z,16.32
2023-05-13T12:07:37.521Z,16.33
2023-05-13T12:10:06.022Z,16.27
2023-05-13T12:12:34.857Z,16.17
2023-05-13T12:15:12.902Z,16.15
2023-05-13T12:17:41.128Z,16.17
2023-05-13T12:20:12.607Z,16.18
2023-05-13T12:22:42.911Z,16.18
2023-05-13T12:25:34.752Z,15.94
2023-05-13T12:28:22.423Z,15.83
2023-05-13T12:31:01.639Z,15.80
2023-05-13T12:33:42.598Z,15.72
2023-05-13T12:36:35.770Z,15.75
2023-05-13T12:39:10.876Z,15.74
2023-05-13T12:41:39.562Z,15.84
2023-05-13T12:44:13.495Z,15.84
2023-05-13T12:46:54.745Z,15.83
2023-05-13T12:49:23.419Z,15.92
2023-05-13T12:51:51.680Z,16.03
2023-05-13T12:54:18.905Z,16.16
2023-05-13T12:56:46.168Z,16.15
2023-05-13T12:59:14.328Z,16.05
2023-05-13T13:01:42.855Z,16.11
2023-05-13T13:04:11.009Z,16.12
2023-05-13T13:06:38.203Z,16.11
2023-05-13T13:09:06.086Z,16.10
2023-05-13T13:11:33.222Z,16.19
2023-05-13T13:14:00.272Z,16.18
2023-05-13T13:16:27.444Z,16.14
2023-05-13T13:18:58.933Z,16.14
2023-05-13T13:21:27.250Z,16.15
2023-05-13T13:23:54.527Z,16.04
2023-05-13T13:26:23.141Z,16.00
2023-05-13T13:28:50.261Z,15.94
2023-05-13T13:31:17.393Z,15.99
2023-05-13T13:33:44.639Z,15.97
2023-05-13T13:36:11.689Z,16.09
2023-05-13T13:38:38.709Z,16.26
2023-05-13T13:41:06.928Z,16.42
2023-05-13T13:43:34.294Z,16.46
2023-05-13T13:46:01.415Z,16.49
2023-05-13T13:48:28.765Z,16.51
2023-05-13T13:50:55.889Z,16.51
2023-05-13T13:53:22.936Z,16.53
2023-05-13T13:55:50.007Z,16.53
2023-05-13T13:58:17.088Z,16.45
2023-05-13T14:00:45.076Z,16.44
2023-05-13T14:03:12.286Z,16.57
2023-05-13T14:05:39.484Z,16.55
2023-05-13T14:08:06.524Z,16.61
2023-05-13T14:10:33.899Z,16.47
2023-05-13T14:13:01.430Z,16.34
2023-05-13T14:15:30.730Z,16.34
2023-05-13T14:17:58.494Z,16.20
2023-05-13T14:20:28.777Z,16.12
2023-05-13T14:22:56.607Z,16.01
2023-05-13T14:25:23.656Z,15.80
2023-05-13T14:27:50.812Z,15.72
2023-05-13T14:30:17.896Z,15.71
2023-05-13T14:32:45.341Z,15.69
2023-05-13T14:35:12.994Z,15.69
2023-05-13T14:37:40.868Z,15.63
2023-05-13T14:40:09.987Z,15.55
2023-05-13T14:42:37.490Z,15.55
2023-05-13T14:45:04.953Z,15.61
2023-05-13T14:47:32.179Z,15.62
2023-05-13T14:49:59.267Z,15.58
2023-05-13T14:52:26.340Z,15.59
2023-05-13T14:54:54.022Z,15.46
2023-05-13T14:57:21.316Z,15.37
2023-05-13T14:59:48.452Z,15.27
2023-05-13T15:02:17.209Z,15.24
2023-05-13T15:04:44.667Z,15.21
2023-05-13T15:07:11.736Z,15.30
2023-05-13T15:09:38.785Z,15.20
2023-05-13T15:12:06.767Z,15.18
2023-05-13T15:14:33.785Z,15.29
2023-05-13T15:17:00.902Z,15.32
2023-05-13T15:19:27.960Z,15.42
2023-05-13T15:21:55.426Z,15.57
2023-05-13T15:24:22.832Z,15.64
2023-05-13T15:26:50.572Z,15.84
2023-05-13T15:29:17.868Z,15.81
2023-05-13T15:31:44.973Z,15.67
2023-05-13T15:34:12.101Z,15.60
2023-05-13T15:36:39.233Z,15.64
2023-05-13T15:39:06.712Z,15.68
2023-05-13T15:41:33.781Z,15.74
2023-05-13T15:44:00.791Z,15.72
2023-05-13T15:46:28.019Z,15.62
2023-05-13T15:48:55.505Z,15.64
2023-05-13T15:51:22.733Z,15.64
2023-05-13T15:53:49.828Z,15.75
2023-05-13T15:56:16.881Z,15.73
2023-05-13T15:58:44.340Z,15.78
2023-05-13T16:01:11.443Z,15.70
2023-05-13T16:03:38.873Z,15.69
2023-05-13T16:06:06.228Z,15.73
2023-05-13T16:08:33.477Z,15.80
2023-05-13T16:11:00.527Z,15.90
2023-05-13T16:13:27.959Z,15.95
2023-05-13T16:15:55.165Z,15.90
2023-05-13T16:18:22.217Z,15.84
2023-05-13T16:20:49.534Z,15.81
2023-05-13T16:23:16.693Z,15.84
2023-05-13T16:25:43.953Z,15.76
2023-05-13T16:28:11.222Z,15.66
2023-05-13T16:30:39.404Z,15.72
2023-05-13T16:33:08.075Z,15.62
2023-05-13T16:35:35.655Z,15.45
2023-05-13T16:38:02.862Z,15.34
2023-05-13T16:40:30.265Z,15.39
2023-05-13T16:42:59.850Z,15.45
2023-05-13T16:45:29.136Z,15.36
2023-05-13T16:47:56.351Z,15.23
2023-05-13T16:50:23.696Z,15.17
2023-05-13T16:52:50.979Z,15.18
2023-05-13T16:55:18.177Z,15.23
2023-05-13T16:57:45.722Z,15.24
2023-05-13T17:00:14.381Z,15.26
2023-05-13T17:02:42.820Z,15.30
2023-05-13T17:05:09.988Z,15.26
2023-05-13T17:07:37.039Z,15.13
2023-05-13T17:10:04.550Z,15.14
2023-05-13T17:12:31.641Z,15.13
2023-05-13T17:14:59.138Z,15.05
2023-05-13T17:17:26.737Z,15.06
2023-05-13T17:19:53.973Z,15.05
2023-05-13T17:22:21.425Z,15.11
2023-05-13T17:24:48.686Z,15.13
2023-05-13T17:27:15.824Z,15.09
2023-05-13T17:29:42.936Z,15.06
2023-05-13T17:32:10.033Z,15.05
2023-05-13T17:34:37.472Z,15.04
2023-05-13T17:37:04.598Z,15.03
2023-05-13T17:39:31.640Z,15.09
2023-05-13T17:41:58.684Z,15.13
2023-05-13T17:44:25.772Z,15.08
2023-05-13T17:46:53.182Z,14.93
2023-05-13T17:49:20.286Z,14.84
2023-05-13T17:51:47.555Z,14.81
2023-05-13T17:54:14.622Z,14.76
2023-05-13T17:56:41.658Z,14.72
2023-05-13T17:59:08.753Z,14.69
2023-05-13T18:01:35.814Z,14.71
2023-05-13T18:04:03.191Z,14.71
2023-05-13T18:06:30.307Z,14.69
2023-05-13T18:08:57.471Z,14.66
2023-05-13T18:11:25.017Z,14.64
2023-05-13T18:13:52.046Z,14.66
2023-05-13T18:16:19.754Z,14.55
2023-05-13T18:18:48.563Z,14.51
2023-05-13T18:21:15.753Z,14.57
2023-05-13T18:23:45.778Z,14.62
2023-05-13T18:26:12.826Z,14.56
2023-05-13T18:28:41.386Z,14.58
2023-05-13T18:31:08.778Z,14.55
2023-05-13T18:33:36.520Z,14.54
2023-05-13T18:36:04.062Z,14.54
2023-05-13T18:38:31.342Z,14.58
2023-05-13T18:41:03.286Z,14.61
2023-05-13T18:43:30.519Z,14.54
2023-05-13T18:45:58.279Z,14.51
2023-05-13T18:48:25.815Z,14.37
2023-05-13T18:50:56.254Z,14.30
2023-05-13T18:53:23.305Z,14.30
2023-05-13T18:55:50.662Z,14.26
2023-05-13T18:58:17.735Z,14.19
2023-05-13T19:00:44.925Z,14.20
2023-05-13T19:03:12.660Z,14.15
2023-05-13T19:05:39.841Z,14.23
2023-05-13T19:08:08.026Z,14.30
2023-05-13T19:10:39.919Z,14.35
2023-05-13T19:13:09.456Z,14.39
2023-05-13T19:15:36.866Z,14.42
2023-05-13T19:18:03.968Z,14.43
2023-05-13T19:20:31.182Z,14.40
2023-05-13T19:22:58.268Z,14.32
2023-05-13T19:25:25.474Z,14.29
2023-05-13T19:27:52.576Z,14.28
2023-05-13T19:30:19.723Z,14.31
2023-05-13T19:32:47.165Z,14.29
2023-05-13T19:35:14.319Z,14.30
2023-05-13T19:37:41.421Z,14.32
2023-05-13T19:40:08.938Z,14.34
2023-05-13T19:42:36.328Z,14.31
2023-05-13T19:45:06.316Z,14.31
2023-05-13T19:47:36.817Z,14.30
2023-05-13T19:50:04.200Z,14.26
2023-05-13T19:52:31.400Z,14.22
2023-05-13T19:54:58.607Z,14.21
2023-05-13T19:57:28.042Z,14.19
2023-05-13T19:59:56.393Z,14.10
2023-05-13T20:02:23.447Z,14.09
2023-05-13T20:04:50.563Z,14.06
2023-05-13T20:07:18.047Z,14.08
2023-05-13T20:09:45.087Z,14.03
2023-05-13T20:12:12.120Z,14.06
2023-05-13T20:14:43.982Z,14.00
2023-05-13T20:17:14.857Z,13.95
2023-05-13T20:19:42.824Z,13.98
2023-05-13T20:22:10.372Z,13.96
2023-05-13T20:24:37.690Z,13.94
2023-05-13T20:27:04.988Z,13.97
2023-05-13T20:29:36.459Z,13.99
2023-05-13T20:32:04.677Z,14.02
2023-05-13T20:34:32.908Z,14.06
2023-05-13T20:37:00.204Z,14.00
2023-05-13T20:39:28.582Z,13.98
2023-05-13T20:41:56.168Z,13.93
2023-05-13T20:44:23.758Z,13.88
2023-05-13T20:46:51.158Z,13.78
2023-05-13T20:49:18.254Z,13.75
2023-05-13T20:51:47.946Z,13.71
2023-05-13T20:54:15.048Z,13.70
2023-05-13T20:56:42.494Z,13.66
2023-05-13T20:59:09.842Z,13.61
2023-05-13T21:01:37.029Z,13.62
2023-05-13T21:04:06.084Z,13.57
2023-05-13T21:06:33.284Z,13.51
2023-05-13T21:09:00.741Z,13.51
2023-05-13T21:11:27.861Z,13.50
2023-05-13T21:13:55.126Z,13.48
2023-05-13T21:16:22.468Z,13.49
2023-05-13T21:18:49.695Z,13.44
2023-05-13T21:21:16.893Z,13.42
2023-05-13T21:23:44.099Z,13.39
2023-05-13T21:26:11.408Z,13.40
2023-05-13T21:28:39.091Z,13.36
2023-05-13T21:31:06.349Z,13.36
2023-05-13T21:33:33.411Z,13.37
2023-05-13T21:36:00.540Z,13.36
2023-05-13T21:38:27.746Z,13.37
2023-05-13T21:40:55.100Z,13.39
2023-05-13T21:43:22.173Z,13.40
2023-05-13T21:45:49.284Z,13.38
2023-05-13T21:48:16.600Z,13.41
2023-05-13T21:50:43.713Z,13.41
2023-05-13T21:53:10.846Z,13.38
2023-05-13T21:55:37.939Z,13.39
2023-05-13T21:58:05.040Z,13.33
2023-05-13T22:00:32.212Z,13.33
2023-05-13T22:03:01.169Z,13.33
2023-05-13T22:05:28.652Z,13.27
2023-05-13T22:07:55.926Z,13.21
2023-05-13T22:10:23.248Z,13.20
2023-05-13T22:12:50.495Z,13.17
2023-05-13T22:15:17.546Z,13.15
2023-05-13T22:17:44.778Z,13.11
2023-05-13T22:20:12.266Z,13.09
2023-05-13T22:22:39.329Z,13.06
2023-05-13T22:25:06.649Z,13.00
2023-05-13T22:27:33.745Z,12.96
2023-05-13T22:30:00.810Z,12.90
2023-05-13T22:32:27.953Z,12.82
2023-05-13T22:34:55.046Z,12.78
2023-05-13T22:37:22.348Z,12.76
2023-05-13T22:39:49.453Z,12.71
2023-05-13T22:42:16.698Z,12.70
2023-05-13T22:44:43.759Z,12.59
2023-05-13T22:47:10.841Z,12.55
2023-05-13T22:49:37.874Z,12.48
2023-05-13T22:52:05.947Z,12.41
2023-05-13T22:54:32.983Z,12.40
2023-05-13T22:57:00.030Z,12.31
2023-05-13T22:59:27.578Z,12.25
2023-05-13T23:01:54.709Z,12.17
2023-05-13T23:04:22.143Z,12.11
2023-05-13T23:06:49.238Z,12.09
2023-05-13T23:09:16.302Z,12.07
2023-05-13T23:11:43.367Z,12.03
2023-05-13T23:14:10.486Z,12.00
2023-05-13T23:16:37.563Z,11.95
2023-05-13T23:19:04.676Z,11.82
2023-05-13T23:21:32.421Z,11.77
2023-05-13T23:23:59.476Z,11.69
2023-05-13T23:26:26.601Z,11.62
2023-05-13T23:28:53.687Z,11.61
2023-05-13T23:31:20.757Z,11.62
2023-05-13T23:33:48.007Z,11.60
2023-05-13T23:36:16.045Z,11.58
2023-05-13T23:38:43.101Z,11.52
2023-05-13T23:41:10.204Z,11.51
2023-05-13T23:43:37.564Z,11.54
2023-05-13T23:46:04.744Z,11.57
2023-05-13T23:48:31.939Z,11.59
2023-05-13T23:50:59.021Z,11.55
2023-05-13T23:53:26.073Z,11.50
2023-05-13T23:55:53.256Z,11.46
2023-05-13T23:58:20.378Z,11.46
